Weippe, ID (83553)

4:00 PM PST on February 26, 2017 (GMT -0800)
MD3200 | | Change Station
Active Advisory: Winter Weather Advisory

Elev 3066 ft 46.38 °N, 115.95 °W | Updated 35 minutes ago

Snow
Snow
31.0 °F
Feels Like 31 °F
N
0.0
Wind Variable Wind from SSE

Today
High -- | Low -- °F
--% Chance of Precip.
Yesterday
High -- | Low -- °F
Precip. -- in
Pressure 29.60 in
Visibility 10.0 miles
Clouds Overcast 7000 ft
Windchill 31 °F
Dew Point 28 °F
Humidity 89%
Rainfall 0.11 in
Snow Depth Not available.
6:27 AM 5:26 PM
New Moon, 0% visible
METAR KGIC 262355Z AUTO 21009KT 10SM OVC070 00/M05 A2960 RMK AO1
Pressure 29.60 in
Visibility 10.0 miles
Clouds Overcast 7000 ft
Windchill 31 °F
Dew Point 28 °F
Humidity 89%
Rainfall 0.11 in
Snow Depth Not available.
6:27 AM 5:26 PM
New Moon, 0% visible
METAR KGIC 262355Z AUTO 21009KT 10SM OVC070 00/M05 A2960 RMK AO1

Get Your Daily Forecast Email!

Thanks for signing up!

Be on the lookout for a verification email in your inbox.

You'll start receiving the daily forecast at 8 AM.

×

10-Day Weather Forecast

Almanac

Astronomy

Feb. 26, 2017 Rise Set
Actual Time
Civil Twilight
Nautical Twilight
Astronomical Twilight
Moon
Length of Visible Light
Length of Day
Tomorrow will be .
, % of the Moon is Illuminated

Today's Extremes

State Highs State Lows

Community

WunderPhotos

Upload Photos

1,962,540 photos uploaded!

WunderBlog® & News

Nearby

Air Quality

  Air Quality AQ Index Pollutant
Not available.

Snow Depth

Station Depth Elevation

Earthquake Activity

City Distance Mag. Time & Date
Minimum magnitude displayed is 2.5.

Coastal Water Temperatures

Place Temperature

Stations

Nearby Weather Stations

Station Location Temp. Windchill Dew Point Humidity Wind Precip. Elev Updated Type
                   

Watches & Warnings

Winter Weather Advisory
Issued: 1:42 PM PST Feb. 26, 2017 – National Weather Service

... Winter Weather Advisory now in effect until 11 am PST Monday...

* impacts/timing: persistent light to moderate snow will impact
west central Idaho through Monday morning. Accumulating snow
will produce potentially challenging driving conditions at
times, especially over whitebird and Greer grades as well across
the higher elevation roads throughout the area.

* Snow accumulations: an additional 2 to 4 inches on the Camas
Prairie, south towards Riggins along US-95 and throughout the
Hells Canyon area. An additional 3 to 6 inches for White Bird
grade and Greer grade

* locations impacted include: Camas Prairie, Grangeville and
vicinity, Greer grade, Highway 95 Slate Creek to Riggins, and
White Bird grade